<?xml version="1.0" encoding="UTF-8" standalone="no" ?>
<gpx xmlns="http://www.topografix.com/GPX/1/1" xmlns:xsi="http://www.w3.org/2001/XMLSchema-instance" xsi:schemaLocation="http://www.topografix.com/GPX/1/1 http://www.topografix.com/GPX/1/1/gpx.xsd" version="1.1" creator="VisuGPX - https://www.visugpx.com">
  <metadata>
    <name>bpIBkxSs6T</name>
    <desc><![CDATA[

]]></desc>
  </metadata>
  <trk>
    <name><![CDATA[bpIBkxSs6T_1]]></name>
    <extensions>
      <line xmlns="http://www.topografix.com/GPX/gpx_style/0/2">
        <color>09008a</color>
        <width>4</width>
      </line>
    </extensions>
    <trkseg>
      <trkpt lat="43.15658" lon="5.97884">
        <ele>271.23</ele>
        <time>2022-09-17T08:53:31Z</time>
      </trkpt>
      <trkpt lat="43.15647" lon="5.97858">
        <ele>269.79</ele>
        <time>2022-09-17T08:53:36Z</time>
      </trkpt>
      <trkpt lat="43.15646" lon="5.97851">
        <ele>268.83</ele>
        <time>2022-09-17T08:53:37Z</time>
      </trkpt>
      <trkpt lat="43.15648" lon="5.97845">
        <ele>268.83</ele>
        <time>2022-09-17T08:53:38Z</time>
      </trkpt>
      <trkpt lat="43.15652" lon="5.97841">
        <ele>268.35</ele>
        <time>2022-09-17T08:53:39Z</time>
      </trkpt>
      <trkpt lat="43.15657" lon="5.9784">
        <ele>267.86</ele>
        <time>2022-09-17T08:53:40Z</time>
      </trkpt>
      <trkpt lat="43.15662" lon="5.97841">
        <ele>267.86</ele>
        <time>2022-09-17T08:53:41Z</time>
      </trkpt>
      <trkpt lat="43.15667" lon="5.97844">
        <ele>267.38</ele>
        <time>2022-09-17T08:53:42Z</time>
      </trkpt>
      <trkpt lat="43.15671" lon="5.97847">
        <ele>266.9</ele>
        <time>2022-09-17T08:53:43Z</time>
      </trkpt>
      <trkpt lat="43.15689" lon="5.97857">
        <ele>265.94</ele>
        <time>2022-09-17T08:53:47Z</time>
      </trkpt>
      <trkpt lat="43.15694" lon="5.97858">
        <ele>265.94</ele>
        <time>2022-09-17T08:53:48Z</time>
      </trkpt>
      <trkpt lat="43.15699" lon="5.97856">
        <ele>265.94</ele>
        <time>2022-09-17T08:53:49Z</time>
      </trkpt>
      <trkpt lat="43.15703" lon="5.97853">
        <ele>265.46</ele>
        <time>2022-09-17T08:53:50Z</time>
      </trkpt>
      <trkpt lat="43.15708" lon="5.97847">
        <ele>265.46</ele>
        <time>2022-09-17T08:53:51Z</time>
      </trkpt>
      <trkpt lat="43.15711" lon="5.97839">
        <ele>264.98</ele>
        <time>2022-09-17T08:53:52Z</time>
      </trkpt>
      <trkpt lat="43.15714" lon="5.9783">
        <ele>264.5</ele>
        <time>2022-09-17T08:53:53Z</time>
      </trkpt>
      <trkpt lat="43.15717" lon="5.97822">
        <ele>264.02</ele>
        <time>2022-09-17T08:53:54Z</time>
      </trkpt>
      <trkpt lat="43.1572" lon="5.97812">
        <ele>264.02</ele>
        <time>2022-09-17T08:53:55Z</time>
      </trkpt>
      <trkpt lat="43.15723" lon="5.97792">
        <ele>263.54</ele>
        <time>2022-09-17T08:53:57Z</time>
      </trkpt>
      <trkpt lat="43.15723" lon="5.97781">
        <ele>263.06</ele>
        <time>2022-09-17T08:53:58Z</time>
      </trkpt>
      <trkpt lat="43.15722" lon="5.97769">
        <ele>262.58</ele>
        <time>2022-09-17T08:53:59Z</time>
      </trkpt>
      <trkpt lat="43.15714" lon="5.97735">
        <ele>261.62</ele>
        <time>2022-09-17T08:54:02Z</time>
      </trkpt>
      <trkpt lat="43.15713" lon="5.97723">
        <ele>261.14</ele>
        <time>2022-09-17T08:54:03Z</time>
      </trkpt>
      <trkpt lat="43.15713" lon="5.9771">
        <ele>260.65</ele>
        <time>2022-09-17T08:54:04Z</time>
      </trkpt>
      <trkpt lat="43.15713" lon="5.97697">
        <ele>260.17</ele>
        <time>2022-09-17T08:54:05Z</time>
      </trkpt>
      <trkpt lat="43.15712" lon="5.97684">
        <ele>260.17</ele>
        <time>2022-09-17T08:54:06Z</time>
      </trkpt>
      <trkpt lat="43.1571" lon="5.9767">
        <ele>259.21</ele>
        <time>2022-09-17T08:54:07Z</time>
      </trkpt>
      <trkpt lat="43.15707" lon="5.97657">
        <ele>259.21</ele>
        <time>2022-09-17T08:54:08Z</time>
      </trkpt>
      <trkpt lat="43.15703" lon="5.97644">
        <ele>258.25</ele>
        <time>2022-09-17T08:54:09Z</time>
      </trkpt>
      <trkpt lat="43.15675" lon="5.97469">
        <ele>247.68</ele>
        <time>2022-09-17T08:54:22Z</time>
      </trkpt>
      <trkpt lat="43.15673" lon="5.97456">
        <ele>247.2</ele>
        <time>2022-09-17T08:54:23Z</time>
      </trkpt>
      <trkpt lat="43.1567" lon="5.97444">
        <ele>246.23</ele>
        <time>2022-09-17T08:54:24Z</time>
      </trkpt>
      <trkpt lat="43.15665" lon="5.97424">
        <ele>244.79</ele>
        <time>2022-09-17T08:54:26Z</time>
      </trkpt>
      <trkpt lat="43.15665" lon="5.97415">
        <ele>244.79</ele>
        <time>2022-09-17T08:54:27Z</time>
      </trkpt>
      <trkpt lat="43.15666" lon="5.97406">
        <ele>244.79</ele>
        <time>2022-09-17T08:54:28Z</time>
      </trkpt>
      <trkpt lat="43.15669" lon="5.97399">
        <ele>244.79</ele>
        <time>2022-09-17T08:54:29Z</time>
      </trkpt>
      <trkpt lat="43.15672" lon="5.97393">
        <ele>244.79</ele>
        <time>2022-09-17T08:54:30Z</time>
      </trkpt>
      <trkpt lat="43.15674" lon="5.97389">
        <ele>245.27</ele>
        <time>2022-09-17T08:54:31Z</time>
      </trkpt>
      <trkpt lat="43.15693" lon="5.97343">
        <ele>246.72</ele>
        <time>2022-09-17T08:54:42Z</time>
      </trkpt>
      <trkpt lat="43.15711" lon="5.97281">
        <ele>247.2</ele>
        <time>2022-09-17T08:54:54Z</time>
      </trkpt>
      <trkpt lat="43.15753" lon="5.97202">
        <ele>247.68</ele>
        <time>2022-09-17T08:55:10Z</time>
      </trkpt>
      <trkpt lat="43.15808" lon="5.97142">
        <ele>251.52</ele>
        <time>2022-09-17T08:55:26Z</time>
      </trkpt>
      <trkpt lat="43.15869" lon="5.97097">
        <ele>255.37</ele>
        <time>2022-09-17T08:55:40Z</time>
      </trkpt>
      <trkpt lat="43.15889" lon="5.97086">
        <ele>254.89</ele>
        <time>2022-09-17T08:55:44Z</time>
      </trkpt>
      <trkpt lat="43.15912" lon="5.97079">
        <ele>255.37</ele>
        <time>2022-09-17T08:55:48Z</time>
      </trkpt>
      <trkpt lat="43.15918" lon="5.97075">
        <ele>254.41</ele>
        <time>2022-09-17T08:55:49Z</time>
      </trkpt>
      <trkpt lat="43.15925" lon="5.9707">
        <ele>252.96</ele>
        <time>2022-09-17T08:55:50Z</time>
      </trkpt>
      <trkpt lat="43.15937" lon="5.97063">
        <ele>252</ele>
        <time>2022-09-17T08:55:52Z</time>
      </trkpt>
      <trkpt lat="43.15943" lon="5.97063">
        <ele>251.52</ele>
        <time>2022-09-17T08:55:53Z</time>
      </trkpt>
      <trkpt lat="43.15948" lon="5.97064">
        <ele>251.04</ele>
        <time>2022-09-17T08:55:54Z</time>
      </trkpt>
      <trkpt lat="43.1596" lon="5.97068">
        <ele>250.08</ele>
        <time>2022-09-17T08:55:56Z</time>
      </trkpt>
      <trkpt lat="43.15965" lon="5.97069">
        <ele>248.64</ele>
        <time>2022-09-17T08:55:57Z</time>
      </trkpt>
      <trkpt lat="43.15972" lon="5.97069">
        <ele>248.64</ele>
        <time>2022-09-17T08:55:58Z</time>
      </trkpt>
      <trkpt lat="43.15978" lon="5.97068">
        <ele>248.64</ele>
        <time>2022-09-17T08:55:59Z</time>
      </trkpt>
      <trkpt lat="43.15984" lon="5.97067">
        <ele>248.16</ele>
        <time>2022-09-17T08:56:00Z</time>
      </trkpt>
      <trkpt lat="43.16063" lon="5.97043">
        <ele>242.87</ele>
        <time>2022-09-17T08:56:14Z</time>
      </trkpt>
      <trkpt lat="43.16128" lon="5.96998">
        <ele>244.31</ele>
        <time>2022-09-17T08:56:29Z</time>
      </trkpt>
      <trkpt lat="43.16182" lon="5.96963">
        <ele>245.75</ele>
        <time>2022-09-17T08:56:50Z</time>
      </trkpt>
      <trkpt lat="43.16233" lon="5.96969">
        <ele>248.64</ele>
        <time>2022-09-17T08:57:09Z</time>
      </trkpt>
      <trkpt lat="43.16285" lon="5.96947">
        <ele>251.52</ele>
        <time>2022-09-17T08:57:31Z</time>
      </trkpt>
      <trkpt lat="43.16316" lon="5.9691">
        <ele>254.41</ele>
        <time>2022-09-17T08:57:49Z</time>
      </trkpt>
      <trkpt lat="43.16345" lon="5.96858">
        <ele>256.81</ele>
        <time>2022-09-17T08:58:08Z</time>
      </trkpt>
      <trkpt lat="43.16359" lon="5.96835">
        <ele>260.17</ele>
        <time>2022-09-17T08:58:19Z</time>
      </trkpt>
      <trkpt lat="43.1636" lon="5.96833">
        <ele>260.17</ele>
        <time>2022-09-17T08:58:20Z</time>
      </trkpt>
      <trkpt lat="43.16385" lon="5.96803">
        <ele>262.1</ele>
        <time>2022-09-17T08:58:34Z</time>
      </trkpt>
      <trkpt lat="43.16412" lon="5.96756">
        <ele>264.5</ele>
        <time>2022-09-17T08:58:53Z</time>
      </trkpt>
      <trkpt lat="43.16424" lon="5.96687">
        <ele>267.86</ele>
        <time>2022-09-17T08:59:14Z</time>
      </trkpt>
      <trkpt lat="43.16421" lon="5.9662">
        <ele>271.71</ele>
        <time>2022-09-17T08:59:34Z</time>
      </trkpt>
      <trkpt lat="43.16427" lon="5.96589">
        <ele>274.59</ele>
        <time>2022-09-17T08:59:45Z</time>
      </trkpt>
      <trkpt lat="43.1643" lon="5.96589">
        <ele>274.59</ele>
        <time>2022-09-17T08:59:46Z</time>
      </trkpt>
      <trkpt lat="43.16432" lon="5.9659">
        <ele>275.07</ele>
        <time>2022-09-17T08:59:47Z</time>
      </trkpt>
      <trkpt lat="43.16434" lon="5.96592">
        <ele>275.56</ele>
        <time>2022-09-17T08:59:48Z</time>
      </trkpt>
      <trkpt lat="43.16435" lon="5.96594">
        <ele>276.04</ele>
        <time>2022-09-17T08:59:49Z</time>
      </trkpt>
      <trkpt lat="43.16436" lon="5.96596">
        <ele>276.04</ele>
        <time>2022-09-17T08:59:50Z</time>
      </trkpt>
      <trkpt lat="43.16446" lon="5.9664">
        <ele>278.44</ele>
        <time>2022-09-17T09:00:03Z</time>
      </trkpt>
      <trkpt lat="43.16461" lon="5.967">
        <ele>281.8</ele>
        <time>2022-09-17T09:00:23Z</time>
      </trkpt>
      <trkpt lat="43.16478" lon="5.96757">
        <ele>283.73</ele>
        <time>2022-09-17T09:00:43Z</time>
      </trkpt>
      <trkpt lat="43.16488" lon="5.96803">
        <ele>286.61</ele>
        <time>2022-09-17T09:00:58Z</time>
      </trkpt>
      <trkpt lat="43.16493" lon="5.9686">
        <ele>290.46</ele>
        <time>2022-09-17T09:01:17Z</time>
      </trkpt>
      <trkpt lat="43.16511" lon="5.96904">
        <ele>292.38</ele>
        <time>2022-09-17T09:01:33Z</time>
      </trkpt>
      <trkpt lat="43.16534" lon="5.96927">
        <ele>294.78</ele>
        <time>2022-09-17T09:01:46Z</time>
      </trkpt>
      <trkpt lat="43.16557" lon="5.96948">
        <ele>297.67</ele>
        <time>2022-09-17T09:01:59Z</time>
      </trkpt>
      <trkpt lat="43.16579" lon="5.96969">
        <ele>299.11</ele>
        <time>2022-09-17T09:02:12Z</time>
      </trkpt>
      <trkpt lat="43.16603" lon="5.96989">
        <ele>304.39</ele>
        <time>2022-09-17T09:02:25Z</time>
      </trkpt>
      <trkpt lat="43.16617" lon="5.9702">
        <ele>307.28</ele>
        <time>2022-09-17T09:02:40Z</time>
      </trkpt>
      <trkpt lat="43.16617" lon="5.97022">
        <ele>307.76</ele>
        <time>2022-09-17T09:02:41Z</time>
      </trkpt>
      <trkpt lat="43.16618" lon="5.97024">
        <ele>308.24</ele>
        <time>2022-09-17T09:02:42Z</time>
      </trkpt>
      <trkpt lat="43.16618" lon="5.97026">
        <ele>308.24</ele>
        <time>2022-09-17T09:02:43Z</time>
      </trkpt>
      <trkpt lat="43.16618" lon="5.97028">
        <ele>308.72</ele>
        <time>2022-09-17T09:02:44Z</time>
      </trkpt>
      <trkpt lat="43.16619" lon="5.97031">
        <ele>308.72</ele>
        <time>2022-09-17T09:02:45Z</time>
      </trkpt>
      <trkpt lat="43.16619" lon="5.97034">
        <ele>309.2</ele>
        <time>2022-09-17T09:02:46Z</time>
      </trkpt>
      <trkpt lat="43.16619" lon="5.97036">
        <ele>309.2</ele>
        <time>2022-09-17T09:02:47Z</time>
      </trkpt>
      <trkpt lat="43.16619" lon="5.97039">
        <ele>309.2</ele>
        <time>2022-09-17T09:02:48Z</time>
      </trkpt>
      <trkpt lat="43.16619" lon="5.97041">
        <ele>309.2</ele>
        <time>2022-09-17T09:02:49Z</time>
      </trkpt>
      <trkpt lat="43.16619" lon="5.97043">
        <ele>309.2</ele>
        <time>2022-09-17T09:02:50Z</time>
      </trkpt>
      <trkpt lat="43.16618" lon="5.97046">
        <ele>309.2</ele>
        <time>2022-09-17T09:02:51Z</time>
      </trkpt>
      <trkpt lat="43.16617" lon="5.97048">
        <ele>309.68</ele>
        <time>2022-09-17T09:02:52Z</time>
      </trkpt>
      <trkpt lat="43.16616" lon="5.97051">
        <ele>309.2</ele>
        <time>2022-09-17T09:02:53Z</time>
      </trkpt>
      <trkpt lat="43.16593" lon="5.97075">
        <ele>311.12</ele>
        <time>2022-09-17T09:03:06Z</time>
      </trkpt>
      <trkpt lat="43.16567" lon="5.97112">
        <ele>314.97</ele>
        <time>2022-09-17T09:03:22Z</time>
      </trkpt>
      <trkpt lat="43.16585" lon="5.97137">
        <ele>316.89</ele>
        <time>2022-09-17T09:03:34Z</time>
      </trkpt>
      <trkpt lat="43.16629" lon="5.97136">
        <ele>319.78</ele>
        <time>2022-09-17T09:03:53Z</time>
      </trkpt>
      <trkpt lat="43.16662" lon="5.97131">
        <ele>323.62</ele>
        <time>2022-09-17T09:04:08Z</time>
      </trkpt>
      <trkpt lat="43.16703" lon="5.9713">
        <ele>329.87</ele>
        <time>2022-09-17T09:04:30Z</time>
      </trkpt>
      <trkpt lat="43.16732" lon="5.97128">
        <ele>333.23</ele>
        <time>2022-09-17T09:04:46Z</time>
      </trkpt>
      <trkpt lat="43.16767" lon="5.97114">
        <ele>336.12</ele>
        <time>2022-09-17T09:05:06Z</time>
      </trkpt>
      <trkpt lat="43.16796" lon="5.97079">
        <ele>338.52</ele>
        <time>2022-09-17T09:05:25Z</time>
      </trkpt>
      <trkpt lat="43.16817" lon="5.97041">
        <ele>340.92</ele>
        <time>2022-09-17T09:05:41Z</time>
      </trkpt>
      <trkpt lat="43.16848" lon="5.96988">
        <ele>342.37</ele>
        <time>2022-09-17T09:05:57Z</time>
      </trkpt>
      <trkpt lat="43.16898" lon="5.96958">
        <ele>343.81</ele>
        <time>2022-09-17T09:06:11Z</time>
      </trkpt>
      <trkpt lat="43.16946" lon="5.96927">
        <ele>343.81</ele>
        <time>2022-09-17T09:06:22Z</time>
      </trkpt>
      <trkpt lat="43.16951" lon="5.96924">
        <ele>343.81</ele>
        <time>2022-09-17T09:06:23Z</time>
      </trkpt>
      <trkpt lat="43.16956" lon="5.96921">
        <ele>343.81</ele>
        <time>2022-09-17T09:06:24Z</time>
      </trkpt>
      <trkpt lat="43.17038" lon="5.96871">
        <ele>346.21</ele>
        <time>2022-09-17T09:06:42Z</time>
      </trkpt>
      <trkpt lat="43.17111" lon="5.96823">
        <ele>345.25</ele>
        <time>2022-09-17T09:06:59Z</time>
      </trkpt>
      <trkpt lat="43.1719" lon="5.96762">
        <ele>342.37</ele>
        <time>2022-09-17T09:07:17Z</time>
      </trkpt>
      <trkpt lat="43.17271" lon="5.9671">
        <ele>338.52</ele>
        <time>2022-09-17T09:07:30Z</time>
      </trkpt>
      <trkpt lat="43.17341" lon="5.96674">
        <ele>336.6</ele>
        <time>2022-09-17T09:07:41Z</time>
      </trkpt>
      <trkpt lat="43.17406" lon="5.96599">
        <ele>334.2</ele>
        <time>2022-09-17T09:07:54Z</time>
      </trkpt>
      <trkpt lat="43.17487" lon="5.96501">
        <ele>327.95</ele>
        <time>2022-09-17T09:08:10Z</time>
      </trkpt>
      <trkpt lat="43.17551" lon="5.96443">
        <ele>326.02</ele>
        <time>2022-09-17T09:08:21Z</time>
      </trkpt>
      <trkpt lat="43.17558" lon="5.9644">
        <ele>325.54</ele>
        <time>2022-09-17T09:08:22Z</time>
      </trkpt>
      <trkpt lat="43.17565" lon="5.96438">
        <ele>325.54</ele>
        <time>2022-09-17T09:08:23Z</time>
      </trkpt>
      <trkpt lat="43.17573" lon="5.96438">
        <ele>325.06</ele>
        <time>2022-09-17T09:08:24Z</time>
      </trkpt>
      <trkpt lat="43.17581" lon="5.96437">
        <ele>324.58</ele>
        <time>2022-09-17T09:08:25Z</time>
      </trkpt>
      <trkpt lat="43.1771" lon="5.96454">
        <ele>322.18</ele>
        <time>2022-09-17T09:08:40Z</time>
      </trkpt>
      <trkpt lat="43.1776" lon="5.96466">
        <ele>325.06</ele>
        <time>2022-09-17T09:08:47Z</time>
      </trkpt>
      <trkpt lat="43.17766" lon="5.96464">
        <ele>325.54</ele>
        <time>2022-09-17T09:08:48Z</time>
      </trkpt>
      <trkpt lat="43.17772" lon="5.9646">
        <ele>326.02</ele>
        <time>2022-09-17T09:08:49Z</time>
      </trkpt>
      <trkpt lat="43.17776" lon="5.96455">
        <ele>326.02</ele>
        <time>2022-09-17T09:08:50Z</time>
      </trkpt>
      <trkpt lat="43.17779" lon="5.9645">
        <ele>326.5</ele>
        <time>2022-09-17T09:08:51Z</time>
      </trkpt>
      <trkpt lat="43.17782" lon="5.96444">
        <ele>326.99</ele>
        <time>2022-09-17T09:08:52Z</time>
      </trkpt>
      <trkpt lat="43.17784" lon="5.96439">
        <ele>327.47</ele>
        <time>2022-09-17T09:08:53Z</time>
      </trkpt>
      <trkpt lat="43.17786" lon="5.96433">
        <ele>327.95</ele>
        <time>2022-09-17T09:08:54Z</time>
      </trkpt>
      <trkpt lat="43.17819" lon="5.96349">
        <ele>329.39</ele>
        <time>2022-09-17T09:09:10Z</time>
      </trkpt>
      <trkpt lat="43.17857" lon="5.9626">
        <ele>328.43</ele>
        <time>2022-09-17T09:09:27Z</time>
      </trkpt>
      <trkpt lat="43.17881" lon="5.96169">
        <ele>326.5</ele>
        <time>2022-09-17T09:09:42Z</time>
      </trkpt>
      <trkpt lat="43.17893" lon="5.96123">
        <ele>326.02</ele>
        <time>2022-09-17T09:09:50Z</time>
      </trkpt>
      <trkpt lat="43.17895" lon="5.96118">
        <ele>326.02</ele>
        <time>2022-09-17T09:09:51Z</time>
      </trkpt>
      <trkpt lat="43.17897" lon="5.96114">
        <ele>326.02</ele>
        <time>2022-09-17T09:09:52Z</time>
      </trkpt>
      <trkpt lat="43.179" lon="5.96109">
        <ele>326.5</ele>
        <time>2022-09-17T09:09:53Z</time>
      </trkpt>
      <trkpt lat="43.17903" lon="5.96105">
        <ele>326.02</ele>
        <time>2022-09-17T09:09:54Z</time>
      </trkpt>
      <trkpt lat="43.17906" lon="5.96101">
        <ele>326.02</ele>
        <time>2022-09-17T09:09:55Z</time>
      </trkpt>
      <trkpt lat="43.1791" lon="5.96098">
        <ele>326.02</ele>
        <time>2022-09-17T09:09:56Z</time>
      </trkpt>
      <trkpt lat="43.17913" lon="5.96096">
        <ele>326.5</ele>
        <time>2022-09-17T09:09:57Z</time>
      </trkpt>
      <trkpt lat="43.17966" lon="5.96047">
        <ele>328.91</ele>
        <time>2022-09-17T09:10:13Z</time>
      </trkpt>
      <trkpt lat="43.17995" lon="5.95969">
        <ele>330.83</ele>
        <time>2022-09-17T09:10:29Z</time>
      </trkpt>
      <trkpt lat="43.18019" lon="5.9592">
        <ele>330.35</ele>
        <time>2022-09-17T09:10:38Z</time>
      </trkpt>
      <trkpt lat="43.18047" lon="5.95812">
        <ele>330.35</ele>
        <time>2022-09-17T09:10:55Z</time>
      </trkpt>
      <trkpt lat="43.181" lon="5.95704">
        <ele>330.83</ele>
        <time>2022-09-17T09:11:14Z</time>
      </trkpt>
      <trkpt lat="43.18146" lon="5.95598">
        <ele>332.75</ele>
        <time>2022-09-17T09:11:33Z</time>
      </trkpt>
      <trkpt lat="43.18159" lon="5.95553">
        <ele>333.23</ele>
        <time>2022-09-17T09:11:41Z</time>
      </trkpt>
      <trkpt lat="43.18186" lon="5.95461">
        <ele>333.23</ele>
        <time>2022-09-17T09:11:57Z</time>
      </trkpt>
      <trkpt lat="43.18189" lon="5.95449">
        <ele>333.23</ele>
        <time>2022-09-17T09:11:59Z</time>
      </trkpt>
      <trkpt lat="43.18222" lon="5.95339">
        <ele>335.16</ele>
        <time>2022-09-17T09:12:17Z</time>
      </trkpt>
      <trkpt lat="43.18224" lon="5.95333">
        <ele>335.64</ele>
        <time>2022-09-17T09:12:18Z</time>
      </trkpt>
      <trkpt lat="43.18265" lon="5.95198">
        <ele>335.64</ele>
        <time>2022-09-17T09:12:40Z</time>
      </trkpt>
      <trkpt lat="43.18301" lon="5.95088">
        <ele>336.12</ele>
        <time>2022-09-17T09:12:57Z</time>
      </trkpt>
      <trkpt lat="43.18333" lon="5.94985">
        <ele>336.12</ele>
        <time>2022-09-17T09:13:15Z</time>
      </trkpt>
      <trkpt lat="43.18361" lon="5.94903">
        <ele>336.6</ele>
        <time>2022-09-17T09:13:29Z</time>
      </trkpt>
      <trkpt lat="43.18362" lon="5.94898">
        <ele>336.6</ele>
        <time>2022-09-17T09:13:30Z</time>
      </trkpt>
      <trkpt lat="43.18383" lon="5.94838">
        <ele>336.6</ele>
        <time>2022-09-17T09:13:40Z</time>
      </trkpt>
      <trkpt lat="43.18414" lon="5.94747">
        <ele>339</ele>
        <time>2022-09-17T09:13:56Z</time>
      </trkpt>
      <trkpt lat="43.18416" lon="5.94742">
        <ele>339</ele>
        <time>2022-09-17T09:13:57Z</time>
      </trkpt>
      <trkpt lat="43.18418" lon="5.94737">
        <ele>339.48</ele>
        <time>2022-09-17T09:13:58Z</time>
      </trkpt>
      <trkpt lat="43.1842" lon="5.94732">
        <ele>339.96</ele>
        <time>2022-09-17T09:13:59Z</time>
      </trkpt>
      <trkpt lat="43.18422" lon="5.94728">
        <ele>339.48</ele>
        <time>2022-09-17T09:14:00Z</time>
      </trkpt>
      <trkpt lat="43.18423" lon="5.94723">
        <ele>339.48</ele>
        <time>2022-09-17T09:14:01Z</time>
      </trkpt>
      <trkpt lat="43.18425" lon="5.94718">
        <ele>339.48</ele>
        <time>2022-09-17T09:14:02Z</time>
      </trkpt>
      <trkpt lat="43.1845" lon="5.94668">
        <ele>342.85</ele>
        <time>2022-09-17T09:14:14Z</time>
      </trkpt>
      <trkpt lat="43.18495" lon="5.94599">
        <ele>347.65</ele>
        <time>2022-09-17T09:14:32Z</time>
      </trkpt>
      <trkpt lat="43.1853" lon="5.94555">
        <ele>350.06</ele>
        <time>2022-09-17T09:14:46Z</time>
      </trkpt>
      <trkpt lat="43.18558" lon="5.94519">
        <ele>352.94</ele>
        <time>2022-09-17T09:14:59Z</time>
      </trkpt>
      <trkpt lat="43.18602" lon="5.94477">
        <ele>357.75</ele>
        <time>2022-09-17T09:15:21Z</time>
      </trkpt>
      <trkpt lat="43.18653" lon="5.94468">
        <ele>362.07</ele>
        <time>2022-09-17T09:15:43Z</time>
      </trkpt>
      <trkpt lat="43.18688" lon="5.9448">
        <ele>366.88</ele>
        <time>2022-09-17T09:15:58Z</time>
      </trkpt>
      <trkpt lat="43.18726" lon="5.94512">
        <ele>369.76</ele>
        <time>2022-09-17T09:16:13Z</time>
      </trkpt>
      <trkpt lat="43.18763" lon="5.94526">
        <ele>373.13</ele>
        <time>2022-09-17T09:16:27Z</time>
      </trkpt>
      <trkpt lat="43.18799" lon="5.94514">
        <ele>374.57</ele>
        <time>2022-09-17T09:16:39Z</time>
      </trkpt>
      <trkpt lat="43.18836" lon="5.94488">
        <ele>375.05</ele>
        <time>2022-09-17T09:16:53Z</time>
      </trkpt>
      <trkpt lat="43.18866" lon="5.94437">
        <ele>377.94</ele>
        <time>2022-09-17T09:17:08Z</time>
      </trkpt>
      <trkpt lat="43.18866" lon="5.94384">
        <ele>379.38</ele>
        <time>2022-09-17T09:17:21Z</time>
      </trkpt>
      <trkpt lat="43.18836" lon="5.94318">
        <ele>379.86</ele>
        <time>2022-09-17T09:17:39Z</time>
      </trkpt>
      <trkpt lat="43.18801" lon="5.94279">
        <ele>378.42</ele>
        <time>2022-09-17T09:17:54Z</time>
      </trkpt>
      <trkpt lat="43.18778" lon="5.94247">
        <ele>376.97</ele>
        <time>2022-09-17T09:18:06Z</time>
      </trkpt>
      <trkpt lat="43.18765" lon="5.94202">
        <ele>381.3</ele>
        <time>2022-09-17T09:18:20Z</time>
      </trkpt>
      <trkpt lat="43.18756" lon="5.9416">
        <ele>387.55</ele>
        <time>2022-09-17T09:18:32Z</time>
      </trkpt>
      <trkpt lat="43.18748" lon="5.94118">
        <ele>391.39</ele>
        <time>2022-09-17T09:18:44Z</time>
      </trkpt>
      <trkpt lat="43.18742" lon="5.94073">
        <ele>393.8</ele>
        <time>2022-09-17T09:18:57Z</time>
      </trkpt>
      <trkpt lat="43.18737" lon="5.94028">
        <ele>395.24</ele>
        <time>2022-09-17T09:19:09Z</time>
      </trkpt>
      <trkpt lat="43.18734" lon="5.93973">
        <ele>399.57</ele>
        <time>2022-09-17T09:19:22Z</time>
      </trkpt>
      <trkpt lat="43.18733" lon="5.93965">
        <ele>401.01</ele>
        <time>2022-09-17T09:19:24Z</time>
      </trkpt>
      <trkpt lat="43.18734" lon="5.93961">
        <ele>401.01</ele>
        <time>2022-09-17T09:19:25Z</time>
      </trkpt>
      <trkpt lat="43.18736" lon="5.93909">
        <ele>402.45</ele>
        <time>2022-09-17T09:19:39Z</time>
      </trkpt>
      <trkpt lat="43.18736" lon="5.93859">
        <ele>402.93</ele>
        <time>2022-09-17T09:19:51Z</time>
      </trkpt>
      <trkpt lat="43.18735" lon="5.93823">
        <ele>403.41</ele>
        <time>2022-09-17T09:20:03Z</time>
      </trkpt>
      <trkpt lat="43.18736" lon="5.93818">
        <ele>405.81</ele>
        <time>2022-09-17T09:20:14Z</time>
      </trkpt>
      <trkpt lat="43.18737" lon="5.93816">
        <ele>405.81</ele>
        <time>2022-09-17T09:20:15Z</time>
      </trkpt>
      <trkpt lat="43.18738" lon="5.93808">
        <ele>405.81</ele>
        <time>2022-09-17T09:20:17Z</time>
      </trkpt>
      <trkpt lat="43.18739" lon="5.93803">
        <ele>405.33</ele>
        <time>2022-09-17T09:20:18Z</time>
      </trkpt>
      <trkpt lat="43.1874" lon="5.93798">
        <ele>405.33</ele>
        <time>2022-09-17T09:20:19Z</time>
      </trkpt>
      <trkpt lat="43.18741" lon="5.93793">
        <ele>405.33</ele>
        <time>2022-09-17T09:20:20Z</time>
      </trkpt>
      <trkpt lat="43.18742" lon="5.93789">
        <ele>404.85</ele>
        <time>2022-09-17T09:20:21Z</time>
      </trkpt>
      <trkpt lat="43.18761" lon="5.93714">
        <ele>403.41</ele>
        <time>2022-09-17T09:20:38Z</time>
      </trkpt>
      <trkpt lat="43.18783" lon="5.93663">
        <ele>404.37</ele>
        <time>2022-09-17T09:20:53Z</time>
      </trkpt>
      <trkpt lat="43.18782" lon="5.93656">
        <ele>404.85</ele>
        <time>2022-09-17T09:21:08Z</time>
      </trkpt>
      <trkpt lat="43.18774" lon="5.93656">
        <ele>405.81</ele>
        <time>2022-09-17T09:21:12Z</time>
      </trkpt>
      <trkpt lat="43.18772" lon="5.93654">
        <ele>405.81</ele>
        <time>2022-09-17T09:21:13Z</time>
      </trkpt>
      <trkpt lat="43.1877" lon="5.93651">
        <ele>405.33</ele>
        <time>2022-09-17T09:21:14Z</time>
      </trkpt>
      <trkpt lat="43.18768" lon="5.93646">
        <ele>404.37</ele>
        <time>2022-09-17T09:21:15Z</time>
      </trkpt>
      <trkpt lat="43.18767" lon="5.93641">
        <ele>404.37</ele>
        <time>2022-09-17T09:21:16Z</time>
      </trkpt>
      <trkpt lat="43.18768" lon="5.93634">
        <ele>403.41</ele>
        <time>2022-09-17T09:21:17Z</time>
      </trkpt>
      <trkpt lat="43.1877" lon="5.93627">
        <ele>402.93</ele>
        <time>2022-09-17T09:21:18Z</time>
      </trkpt>
    </trkseg>
  </trk>
</gpx>